Time;durP1;ratioP1;P1;durP2;ratioP2;P2;SDS_P1;SDS_P2;PMS_P1;PMS_P2;Temp;Humidity;BMP_temperature;BMP_pressure;BME280_temperature;BME280_humidity;BME280_pressure;Samples;Min_cycle;Max_cycle;Signal;HPM_P1;HPM_P2
2022/11/27 00:01:09;;;;;;;16.65;6.82;;;8.90;99.90;;;;;;5027449;28;20053;-68
2022/11/27 00:03:35;;;;;;;27.05;7.63;;;8.80;99.90;;;;;;5030095;28;20041;-68
2022/11/27 00:06:00;;;;;;;21.85;7.32;;;8.80;99.90;;;;;;5029698;28;20068;-68
2022/11/27 00:08:26;;;;;;;23.33;7.10;;;8.80;99.90;;;;;;5031176;28;20128;-68
2022/11/27 00:10:51;;;;;;;24.52;6.85;;;8.60;99.90;;;;;;5030406;28;20037;-68
2022/11/27 00:13:17;;;;;;;16.42;6.22;;;8.50;99.90;;;;;;5029111;28;20083;-68
2022/11/27 00:15:43;;;;;;;30.88;8.13;;;8.50;99.90;;;;;;5031758;28;20034;-68
2022/11/27 00:18:09;;;;;;;30.55;8.65;;;8.40;99.90;;;;;;5029587;28;20519;-68
2022/11/27 00:20:34;;;;;;;29.27;7.82;;;8.70;99.90;;;;;;5030013;28;20091;-68
2022/11/27 00:23:00;;;;;;;28.98;8.73;;;8.70;99.90;;;;;;5029392;28;20134;-68
2022/11/27 00:25:26;;;;;;;21.33;6.82;;;8.60;99.90;;;;;;5025820;28;20040;-68
2022/11/27 00:27:51;;;;;;;20.48;6.80;;;8.40;99.90;;;;;;5024177;28;20122;-68
2022/11/27 00:30:17;;;;;;;18.48;7.13;;;8.60;99.90;;;;;;5019379;28;20096;-68
2022/11/27 00:32:43;;;;;;;24.38;7.20;;;8.40;99.90;;;;;;5030248;28;20045;-67
2022/11/27 00:35:08;;;;;;;21.23;7.00;;;8.60;99.90;;;;;;5026996;28;20045;-68
2022/11/27 00:37:34;;;;;;;30.92;6.97;;;8.40;99.90;;;;;;5028230;28;20037;-68
2022/11/27 00:39:59;;;;;;;21.20;6.88;;;8.40;99.90;;;;;;5029283;28;20042;-68
2022/11/27 00:42:25;;;;;;;23.30;7.50;;;8.50;99.90;;;;;;5029788;28;20041;-68
2022/11/27 00:44:51;;;;;;;26.23;7.68;;;8.60;99.90;;;;;;5030173;28;20495;-68
2022/11/27 00:47:16;;;;;;;25.05;8.27;;;8.30;99.90;;;;;;5026864;28;20099;-68
2022/11/27 00:49:42;;;;;;;31.67;8.05;;;8.30;99.90;;;;;;5030045;28;20499;-68
2022/11/27 00:52:07;;;;;;;27.60;8.55;;;8.60;99.90;;;;;;5007240;28;20103;-68
2022/11/27 00:54:33;;;;;;;24.90;7.80;;;8.40;99.90;;;;;;5011749;28;20046;-68
2022/11/27 00:56:58;;;;;;;20.88;6.20;;;8.40;99.90;;;;;;5028246;28;20041;-68
2022/11/27 00:59:24;;;;;;;22.13;7.28;;;8.70;99.90;;;;;;5029859;28;20087;-68
2022/11/27 01:01:50;;;;;;;17.70;5.63;;;8.60;99.90;;;;;;5036332;28;20121;-68
2022/11/27 01:04:16;;;;;;;19.77;6.32;;;8.70;99.90;;;;;;5026715;28;20511;-68
2022/11/27 01:06:42;;;;;;;22.50;7.18;;;8.70;99.90;;;;;;5029152;28;20037;-68
2022/11/27 01:09:10;;;;;;;19.75;6.32;;;8.70;99.90;;;;;;5031217;28;20046;-68
2022/11/27 01:11:36;;;;;;;21.42;7.07;;;8.80;99.90;;;;;;5026235;28;20065;-68
2022/11/27 01:14:05;;;;;;;26.13;7.60;;;8.70;99.90;;;;;;5042886;28;20045;-68
2022/11/27 01:16:32;;;;;;;21.17;7.35;;;8.80;99.90;;;;;;5029440;28;20038;-67
2022/11/27 01:18:59;;;;;;;28.02;8.15;;;8.80;99.90;;;;;;5029306;28;20033;-68
2022/11/27 01:21:27;;;;;;;24.80;8.02;;;8.80;99.90;;;;;;5032350;28;20037;-68
2022/11/27 01:23:53;;;;;;;25.17;7.88;;;8.60;99.90;;;;;;5033574;28;20064;-68
2022/11/27 01:26:19;;;;;;;19.58;6.35;;;8.70;99.90;;;;;;5032313;28;20037;-68
2022/11/27 01:28:45;;;;;;;24.90;6.82;;;8.80;99.90;;;;;;5033173;28;20388;-68
2022/11/27 01:31:18;;;;;;;23.30;7.25;;;8.50;99.90;;;;;;5028416;28;20184;-68
2022/11/27 01:33:45;;;;;;;20.85;6.65;;;8.70;99.90;;;;;;5033454;28;20483;-68
2022/11/27 01:36:12;;;;;;;24.33;6.68;;;8.50;99.90;;;;;;5030562;28;20073;-68
2022/11/27 01:38:37;;;;;;;20.73;7.32;;;8.60;99.90;;;;;;5033241;28;20121;-68
2022/11/27 01:41:15;;;;;;;22.15;7.60;;;8.50;99.90;;;;;;5032650;28;20124;-68
2022/11/27 01:43:45;;;;;;;23.30;7.90;;;8.50;99.90;;;;;;5030066;28;20064;-68
2022/11/27 01:46:33;;;;;;;18.45;7.22;;;8.50;99.90;;;;;;5024034;28;20077;-68
2022/11/27 01:49:07;;;;;;;23.88;6.55;;;8.70;99.90;;;;;;5018129;28;20127;-68
2022/11/27 01:51:54;;;;;;;28.92;6.80;;;8.70;99.90;;;;;;5032247;28;20037;-68
2022/11/27 01:54:23;;;;;;;20.17;6.57;;;8.70;99.90;;;;;;5027398;28;20049;-68
2022/11/27 01:56:55;;;;;;;16.60;5.65;;;8.70;99.90;;;;;;5009162;28;20413;-68
2022/11/27 01:59:21;;;;;;;23.52;7.00;;;8.80;99.90;;;;;;5032585;28;20069;-68
2022/11/27 02:01:46;;;;;;;17.60;5.28;;;8.80;99.90;;;;;;5032080;28;20041;-68
2022/11/27 02:04:12;;;;;;;23.73;6.53;;;8.60;99.90;;;;;;5017732;28;20136;-68
2022/11/27 02:06:38;;;;;;;27.80;7.05;;;8.60;99.90;;;;;;5029445;28;20042;-67
2022/11/27 02:09:04;;;;;;;21.05;6.38;;;8.70;99.90;;;;;;5034148;28;20030;-68
2022/11/27 02:11:42;;;;;;;18.00;6.15;;;8.60;99.90;;;;;;5028739;28;20038;-68
2022/11/27 02:14:52;;;;;;;19.98;5.65;;;8.80;99.90;;;;;;5026202;28;20125;-67
2022/11/27 02:17:45;;;;;;;21.88;6.30;;;8.60;99.90;;;;;;5015172;28;20560;-68
2022/11/27 02:20:44;;;;;;;20.40;6.07;;;8.90;99.90;;;;;;5033035;28;20054;-67
2022/11/27 02:23:34;;;;;;;21.00;6.38;;;8.90;99.90;;;;;;5031325;28;20052;-67
2022/11/27 02:26:37;;;;;;;14.23;5.00;;;8.70;99.90;;;;;;5030610;28;20517;-68
2022/11/27 02:29:07;;;;;;;14.82;5.18;;;8.80;99.90;;;;;;5032267;28;20136;-68
2022/11/27 02:31:45;;;;;;;19.83;6.25;;;8.90;99.90;;;;;;5030186;28;20395;-68
2022/11/27 02:34:36;;;;;;;14.38;5.35;;;8.90;99.90;;;;;;5032091;28;20087;-68
2022/11/27 02:37:21;;;;;;;18.67;6.00;;;8.80;99.90;;;;;;5029488;28;20053;-68
2022/11/27 02:40:11;;;;;;;25.48;6.80;;;8.90;99.90;;;;;;5013963;28;20041;-68
2022/11/27 02:42:54;;;;;;;14.65;5.57;;;8.80;99.90;;;;;;5019805;28;20042;-68
2022/11/27 02:45:26;;;;;;;16.88;6.43;;;8.80;99.90;;;;;;5031016;28;20041;-67
2022/11/27 02:47:52;;;;;;;18.77;6.30;;;8.80;99.90;;;;;;5032133;28;20041;-68
2022/11/27 02:50:22;;;;;;;21.10;5.60;;;8.80;99.90;;;;;;5030781;28;20053;-68
2022/11/27 02:52:52;;;;;;;17.85;6.53;;;8.90;99.90;;;;;;5032243;28;20045;-67
2022/11/27 02:55:23;;;;;;;14.15;5.40;;;8.80;99.90;;;;;;5029772;28;20076;-67
2022/11/27 02:57:52;;;;;;;15.05;5.53;;;9.00;99.90;;;;;;5031621;28;20050;-68
2022/11/27 03:00:18;;;;;;;22.33;6.05;;;8.80;99.90;;;;;;5029000;28;20041;-68
2022/11/27 03:02:58;;;;;;;20.65;6.55;;;8.90;99.90;;;;;;5025077;28;20215;-68
2022/11/27 03:05:29;;;;;;;18.30;5.95;;;8.90;99.90;;;;;;5031761;28;20048;-68
2022/11/27 03:08:17;;;;;;;12.90;4.50;;;8.90;99.90;;;;;;5031414;28;20045;-68
2022/11/27 03:10:49;;;;;;;12.73;5.22;;;8.90;99.90;;;;;;5023685;28;20042;-68
2022/11/27 03:13:14;;;;;;;18.17;5.57;;;9.00;99.90;;;;;;5030889;28;20411;-68
2022/11/27 03:16:28;;;;;;;15.23;4.70;;;8.90;99.20;;;;;;5031287;28;20037;-68
2022/11/27 03:19:02;;;;;;;19.00;5.53;;;9.00;1.70;;;;;;4997310;28;20496;-67
2022/11/27 03:21:32;;;;;;;19.90;5.78;;;9.00;1.00;;;;;;5029896;28;20495;-68
2022/11/27 03:23:58;;;;;;;21.48;5.95;;;8.90;1.00;;;;;;5031618;28;20048;-67
2022/11/27 03:26:24;;;;;;;19.45;5.28;;;9.10;1.00;;;;;;5030780;28;20041;-67
2022/11/27 03:28:52;;;;;;;13.18;3.90;;;8.90;99.90;;;;;;5029458;28;20044;-69
2022/11/27 03:31:18;;;;;;;16.38;4.80;;;8.90;99.90;;;;;;5031690;28;20065;-68
2022/11/27 03:33:44;;;;;;;15.13;4.88;;;8.90;69.20;;;;;;5030797;28;20107;-68
2022/11/27 03:36:12;;;;;;;11.35;4.13;;;8.90;1.00;;;;;;5031032;28;20041;-68
2022/11/27 03:38:37;;;;;;;20.30;5.75;;;9.00;1.00;;;;;;5029416;28;20437;-68
2022/11/27 03:41:34;;;;;;;24.33;5.35;;;9.00;1.00;;;;;;5030218;28;20037;-68
2022/11/27 03:44:10;;;;;;;13.25;4.82;;;8.90;99.90;;;;;;4983787;28;20042;-68
2022/11/27 03:46:44;;;;;;;19.88;5.50;;;9.00;1.00;;;;;;5029569;28;20045;-68
2022/11/27 03:49:32;;;;;;;14.25;4.38;;;9.00;1.00;;;;;;5029646;28;20048;-68
2022/11/27 03:52:11;;;;;;;21.15;5.97;;;9.10;99.90;;;;;;5007884;28;20052;-68
2022/11/27 03:54:52;;;;;;;11.55;4.13;;;9.10;99.90;;;;;;5029841;28;20120;-68
2022/11/27 03:57:39;;;;;;;17.65;4.55;;;9.10;1.00;;;;;;5047505;28;20046;-68
2022/11/27 04:00:07;;;;;;;16.02;4.38;;;9.00;99.90;;;;;;5029617;28;20120;-68
2022/11/27 04:02:41;;;;;;;14.93;4.85;;;9.10;99.90;;;;;;5029958;28;20037;-67
2022/11/27 04:05:07;;;;;;;21.38;5.05;;;9.10;1.00;;;;;;5030300;28;20041;-68
2022/11/27 04:07:33;;;;;;;16.08;4.63;;;9.10;99.90;;;;;;5047423;28;20090;-68
2022/11/27 04:09:58;;;;;;;14.93;4.80;;;9.10;99.90;;;;;;5028862;28;20041;-67
2022/11/27 04:12:24;;;;;;;12.23;3.30;;;9.10;99.90;;;;;;5028929;28;20045;-68
2022/11/27 04:14:49;;;;;;;9.18;3.90;;;9.90;1.00;;;;;;5028194;28;20046;-68
2022/11/27 04:17:15;;;;;;;16.48;3.83;;;9.20;1.00;;;;;;5010787;28;20046;-68
2022/11/27 04:19:40;;;;;;;13.38;3.90;;;9.10;99.90;;;;;;5027026;28;20048;-68
2022/11/27 04:22:06;;;;;;;20.23;5.30;;;9.10;99.90;;;;;;5029952;28;20038;-68
2022/11/27 04:24:32;;;;;;;19.98;4.82;;;9.10;26.20;;;;;;5030576;28;20046;-68
2022/11/27 04:26:57;;;;;;;16.92;4.85;;;9.20;99.90;;;;;;5030451;28;20071;-68
2022/11/27 04:29:23;;;;;;;11.38;4.03;;;9.00;1.00;;;;;;5029454;28;20116;-67
2022/11/27 04:31:48;;;;;;;7.32;3.15;;;9.00;95.70;;;;;;5046691;28;20044;-68
2022/11/27 04:34:14;;;;;;;15.15;4.28;;;9.00;19.60;;;;;;5031592;28;20037;-67
2022/11/27 04:36:40;;;;;;;14.30;4.22;;;9.10;8.20;;;;;;5029689;28;20443;-67
2022/11/27 04:39:06;;;;;;;14.98;3.85;;;9.10;1.00;;;;;;5029172;28;20492;-68
2022/11/27 04:41:32;;;;;;;8.75;4.10;;;9.00;99.90;;;;;;5043980;28;20048;-68
2022/11/27 04:43:57;;;;;;;14.30;4.32;;;9.20;99.90;;;;;;5030466;28;20033;-67
2022/11/27 04:46:23;;;;;;;11.32;4.03;;;9.10;99.90;;;;;;5029270;28;20495;-68
2022/11/27 04:48:48;;;;;;;12.00;3.92;;;9.10;1.00;;;;;;5030053;28;20352;-67
2022/11/27 04:51:14;;;;;;;13.77;3.67;;;9.20;1.00;;;;;;5028766;28;20129;-68
2022/11/27 04:53:39;;;;;;;10.77;4.18;;;9.00;1.00;;;;;;5030034;28;20045;-67
2022/11/27 04:56:05;;;;;;;11.68;3.50;;;9.00;1.00;;;;;;5030018;28;20044;-67
2022/11/27 04:58:31;;;;;;;11.23;4.10;;;9.10;99.90;;;;;;5019472;28;20084;-68
2022/11/27 05:00:56;;;;;;;16.63;4.78;;;9.00;99.90;;;;;;5033236;28;20037;-67
2022/11/27 05:03:22;;;;;;;15.65;4.90;;;9.10;99.90;;;;;;5033185;28;20038;-67
2022/11/27 05:05:55;;;;;;;12.15;3.85;;;9.00;1.00;;;;;;5033298;28;20445;-67
2022/11/27 05:08:22;;;;;;;8.60;3.25;;;9.00;99.90;;;;;;5033933;28;20518;-68
2022/11/27 05:11:00;;;;;;;8.48;3.33;;;9.00;99.90;;;;;;5029269;28;20033;-68
2022/11/27 05:13:26;;;;;;;14.63;3.80;;;9.00;99.90;;;;;;5032668;28;20056;-68
2022/11/27 05:15:52;;;;;;;8.07;3.42;;;9.00;99.90;;;;;;5048479;28;20511;-68
2022/11/27 05:18:17;;;;;;;13.05;4.55;;;9.00;64.60;;;;;;5030378;28;20057;-68
2022/11/27 05:20:43;;;;;;;10.77;3.75;;;9.10;1.00;;;;;;5024276;28;20037;-67
2022/11/27 05:23:08;;;;;;;13.35;3.13;;;9.00;1.00;;;;;;5032738;28;20124;-67
2022/11/27 05:25:34;;;;;;;16.52;4.70;;;9.00;1.00;;;;;;5050244;28;20048;-67
2022/11/27 05:27:59;;;;;;;10.25;3.45;;;9.10;99.90;;;;;;5033634;28;20041;-67
2022/11/27 05:30:25;;;;;;;14.55;3.67;;;9.10;99.90;;;;;;5028600;28;20041;-67
2022/11/27 05:32:50;;;;;;;9.52;3.55;;;9.00;99.90;;;;;;5049784;28;20045;-68
2022/11/27 05:35:16;;;;;;;12.80;4.22;;;9.00;99.90;;;;;;5022358;28;20042;-67
2022/11/27 05:37:41;;;;;;;13.57;4.30;;;9.00;99.90;;;;;;5025821;28;20509;-68
2022/11/27 05:40:07;;;;;;;14.27;3.70;;;9.00;99.90;;;;;;5031058;28;20500;-67
2022/11/27 05:42:33;;;;;;;13.00;4.88;;;9.10;1.00;;;;;;5049683;28;20040;-67
2022/11/27 05:44:58;;;;;;;11.02;3.75;;;9.10;1.00;;;;;;5032163;28;20033;-68
2022/11/27 05:47:24;;;;;;;9.18;3.28;;;9.10;1.00;;;;;;5033229;28;20045;-67
2022/11/27 05:49:49;;;;;;;14.07;3.63;;;9.00;1.00;;;;;;5031905;28;20609;-67
2022/11/27 05:52:15;;;;;;;11.27;3.55;;;8.90;1.00;;;;;;5049120;28;20152;-67
2022/11/27 05:54:40;;;;;;;13.00;3.40;;;9.00;1.00;;;;;;5030729;28;20095;-68
2022/11/27 05:57:06;;;;;;;10.32;3.70;;;9.00;1.00;;;;;;5032499;28;20084;-68
2022/11/27 05:59:32;;;;;;;13.93;4.63;;;9.00;1.00;;;;;;5032715;28;20075;-68
2022/11/27 06:01:57;;;;;;;16.85;3.47;;;9.00;1.00;;;;;;5027646;28;20454;-67
2022/11/27 06:04:23;;;;;;;11.00;3.65;;;9.10;1.00;;;;;;5029356;28;20487;-67
2022/11/27 06:06:48;;;;;;;12.65;3.90;;;9.00;1.00;;;;;;5028861;28;20080;-67
2022/11/27 06:09:14;;;;;;;7.85;2.92;;;9.00;1.00;;;;;;5032274;28;20033;-67
2022/11/27 06:11:40;;;;;;;11.30;3.17;;;9.00;99.90;;;;;;5026227;28;20053;-67
2022/11/27 06:14:10;;;;;;;12.93;3.60;;;9.10;99.90;;;;;;5029079;28;20057;-68
2022/11/27 06:16:36;;;;;;;20.73;5.22;;;9.00;99.90;;;;;;5025657;28;20040;-68
2022/11/27 06:19:01;;;;;;;12.73;3.85;;;9.00;99.90;;;;;;5049408;28;20120;-67
2022/11/27 06:21:27;;;;;;;8.48;4.07;;;9.00;99.90;;;;;;5032040;28;20040;-67
2022/11/27 06:23:54;;;;;;;9.38;3.40;;;9.00;99.90;;;;;;5030365;28;20399;-68
2022/11/27 06:26:28;;;;;;;9.82;3.80;;;8.90;99.90;;;;;;5032532;28;20030;-67
2022/11/27 06:28:55;;;;;;;9.95;3.17;;;8.90;99.90;;;;;;5030508;28;20087;-67
2022/11/27 06:31:26;;;;;;;11.63;3.03;;;9.00;99.90;;;;;;5032340;28;20132;-67
2022/11/27 06:33:53;;;;;;;8.13;3.42;;;8.90;99.90;;;;;;5031098;28;20044;-67
2022/11/27 06:36:20;;;;;;;11.73;3.78;;;8.90;99.90;;;;;;5048684;28;20052;-67
2022/11/27 06:38:46;;;;;;;10.77;4.00;;;9.00;99.90;;;;;;5031851;28;20140;-67
2022/11/27 06:41:15;;;;;;;10.20;3.60;;;8.90;99.90;;;;;;5028827;28;20133;-67
2022/11/27 06:43:41;;;;;;;11.60;3.67;;;8.80;99.90;;;;;;5030568;28;20033;-67
2022/11/27 06:46:10;;;;;;;7.93;3.80;;;8.80;99.90;;;;;;5022813;28;20041;-67
2022/11/27 06:48:35;;;;;;;6.88;3.17;;;8.80;99.90;;;;;;5012594;28;20042;-67
2022/11/27 06:51:03;;;;;;;9.75;3.10;;;8.90;99.90;;;;;;5028125;28;20048;-68
2022/11/27 06:53:29;;;;;;;9.75;4.15;;;8.80;99.90;;;;;;5030650;28;20055;-67
2022/11/27 06:55:56;;;;;;;11.32;3.35;;;8.80;99.90;;;;;;5031873;28;20480;-67
2022/11/27 06:58:21;;;;;;;13.63;3.95;;;8.70;99.90;;;;;;5031299;28;20041;-68
2022/11/27 07:00:47;;;;;;;9.98;3.50;;;8.70;99.90;;;;;;5031364;28;20036;-68
2022/11/27 07:03:12;;;;;;;8.90;3.70;;;8.70;99.90;;;;;;5030494;28;20037;-67
2022/11/27 07:05:38;;;;;;;11.73;3.20;;;8.60;99.90;;;;;;5030725;28;20033;-68
2022/11/27 07:08:04;;;;;;;7.43;3.53;;;8.70;1.00;;;;;;5029559;28;20188;-67
2022/11/27 07:10:33;;;;;;;9.43;3.17;;;8.70;1.00;;;;;;5027857;28;20037;-67
2022/11/27 07:12:59;;;;;;;8.25;3.55;;;8.80;1.00;;;;;;5027899;28;20503;-67
2022/11/27 07:15:25;;;;;;;9.55;3.67;;;8.80;99.90;;;;;;5031431;28;20056;-68
2022/11/27 07:17:50;;;;;;;8.65;3.90;;;8.80;1.00;;;;;;5030646;28;20410;-67
2022/11/27 07:20:16;;;;;;;12.52;4.55;;;8.80;1.00;;;;;;5024094;28;20553;-67
2022/11/27 07:22:41;;;;;;;12.45;3.92;;;8.70;1.00;;;;;;5022384;28;20068;-67
2022/11/27 07:25:07;;;;;;;10.25;3.60;;;8.70;99.90;;;;;;5047320;28;20037;-68
2022/11/27 07:27:33;;;;;;;9.55;3.72;;;8.80;1.00;;;;;;5031337;28;20099;-68
2022/11/27 07:29:58;;;;;;;7.53;3.38;;;8.80;1.00;;;;;;5029822;28;20136;-68
2022/11/27 07:32:24;;;;;;;8.65;3.08;;;8.70;1.00;;;;;;5031266;28;20088;-68
2022/11/27 07:34:49;;;;;;;10.07;3.95;;;8.70;1.00;;;;;;5028004;28;20037;-68
2022/11/27 07:37:15;;;;;;;13.10;3.88;;;8.80;1.00;;;;;;5026785;28;20049;-68
2022/11/27 07:39:40;;;;;;;14.93;3.70;;;8.80;1.00;;;;;;5026371;28;20029;-69
2022/11/27 07:42:06;;;;;;;12.48;3.83;;;8.70;1.00;;;;;;5030666;28;20042;-68
2022/11/27 07:44:32;;;;;;;9.35;3.30;;;8.50;1.00;;;;;;5029810;28;20108;-69
2022/11/27 07:46:57;;;;;;;7.38;3.08;;;8.60;1.00;;;;;;5012830;28;20103;-69
2022/11/27 07:49:23;;;;;;;5.95;2.63;;;8.60;60.80;;;;;;5022670;28;20045;-68
2022/11/27 07:51:48;;;;;;;7.45;3.28;;;8.50;99.90;;;;;;5030521;28;20044;-69
2022/11/27 07:54:14;;;;;;;10.02;3.22;;;8.60;99.90;;;;;;5028872;28;20044;-68
2022/11/27 07:56:39;;;;;;;9.55;3.20;;;8.60;99.90;;;;;;5030648;28;20124;-68
2022/11/27 07:59:05;;;;;;;8.23;3.35;;;8.40;99.90;;;;;;5031801;28;20042;-68
2022/11/27 08:01:30;;;;;;;8.52;3.50;;;8.40;99.90;;;;;;5027248;28;20041;-68
2022/11/27 08:03:56;;;;;;;9.90;3.65;;;8.40;99.90;;;;;;5011092;28;20557;-68
2022/11/27 08:06:24;;;;;;;7.75;3.00;;;8.40;1.00;;;;;;5021454;28;20121;-68
2022/11/27 08:08:50;;;;;;;4.65;2.95;;;8.50;1.00;;;;;;5029133;28;20037;-68
2022/11/27 08:11:19;;;;;;;8.88;3.40;;;8.60;91.70;;;;;;5043866;28;20037;-67
2022/11/27 08:13:44;;;;;;;9.40;3.42;;;8.30;99.90;;;;;;5010407;28;20495;-68
2022/11/27 08:16:10;;;;;;;11.85;3.90;;;8.40;99.90;;;;;;5026447;28;20040;-68
2022/11/27 08:18:35;;;;;;;8.57;3.83;;;8.50;99.90;;;;;;5011027;28;20529;-68
2022/11/27 08:21:01;;;;;;;11.55;4.22;;;8.40;1.00;;;;;;5015855;28;20045;-68
2022/11/27 08:23:27;;;;;;;11.98;4.32;;;8.50;1.00;;;;;;5029140;28;20407;-67
2022/11/27 08:25:52;;;;;;;9.02;3.22;;;8.50;32.30;;;;;;5030126;28;20484;-68
2022/11/27 08:28:18;;;;;;;12.90;3.30;;;8.50;96.90;;;;;;5031037;28;20049;-67
2022/11/27 08:30:43;;;;;;;10.20;3.45;;;8.40;99.90;;;;;;5034003;28;20060;-68
2022/11/27 08:33:11;;;;;;;7.28;3.85;;;8.60;1.00;;;;;;5033678;28;20095;-67
2022/11/27 08:35:36;;;;;;;13.98;4.82;;;8.40;1.00;;;;;;5031711;28;20095;-67
2022/11/27 08:38:02;;;;;;;9.48;3.38;;;8.60;1.00;;;;;;5033002;28;20038;-68
2022/11/27 08:40:27;;;;;;;9.80;3.80;;;8.60;1.00;;;;;;5034276;28;20102;-67
2022/11/27 08:42:53;;;;;;;7.93;3.17;;;9.20;1.00;;;;;;5030555;28;20073;-69
2022/11/27 08:45:18;;;;;;;10.93;3.78;;;8.50;1.00;;;;;;5032797;28;20045;-68
2022/11/27 08:47:44;;;;;;;7.75;3.15;;;8.40;1.30;;;;;;5030393;28;20038;-68
2022/11/27 08:50:10;;;;;;;11.68;3.03;;;8.50;99.90;;;;;;5028444;28;20511;-67
2022/11/27 08:52:35;;;;;;;5.25;2.63;;;8.60;1.00;;;;;;5028184;28;20090;-68
2022/11/27 08:55:01;;;;;;;11.02;3.10;;;8.50;90.80;;;;;;5026558;28;20107;-67
2022/11/27 08:57:26;;;;;;;11.98;4.70;;;8.70;14.00;;;;;;5032456;28;20045;-68
2022/11/27 08:59:52;;;;;;;11.50;3.72;;;8.40;99.90;;;;;;5031751;28;20064;-67
2022/11/27 09:02:17;;;;;;;13.68;3.58;;;8.50;99.90;;;;;;5043165;28;20037;-68
2022/11/27 09:04:43;;;;;;;8.20;3.20;;;8.70;99.90;;;;;;5031545;28;20044;-68
2022/11/27 09:07:11;;;;;;;17.40;3.55;;;8.70;99.90;;;;;;5025842;28;20042;-67
2022/11/27 09:09:36;;;;;;;11.05;3.53;;;8.60;1.00;;;;;;5003856;28;20056;-67
2022/11/27 09:12:02;;;;;;;5.57;2.88;;;8.50;99.90;;;;;;5028857;28;20049;-68
2022/11/27 09:14:27;;;;;;;8.43;3.63;;;8.60;99.90;;;;;;5025267;28;20069;-67
2022/11/27 09:16:53;;;;;;;15.50;4.63;;;8.80;99.90;;;;;;5026045;28;20042;-68
2022/11/27 09:19:20;;;;;;;12.73;4.00;;;8.60;1.00;;;;;;5023248;28;20037;-67
2022/11/27 09:21:48;;;;;;;11.20;3.95;;;8.80;39.60;;;;;;5028975;28;20041;-69
2022/11/27 09:24:14;;;;;;;11.68;3.35;;;8.80;1.00;;;;;;5013709;28;20044;-68
2022/11/27 09:26:39;;;;;;;9.77;3.90;;;8.60;1.00;;;;;;5029372;28;20041;-71
2022/11/27 09:29:05;;;;;;;9.63;3.58;;;8.60;1.00;;;;;;5029991;28;20041;-72
2022/11/27 09:31:30;;;;;;;4.43;2.72;;;8.60;33.10;;;;;;5030062;28;20067;-68
2022/11/27 09:33:58;;;;;;;9.50;3.78;;;8.90;99.90;;;;;;5029217;28;20068;-68
2022/11/27 09:36:25;;;;;;;8.02;2.88;;;8.70;99.90;;;;;;5023171;28;20113;-67
2022/11/27 09:38:51;;;;;;;9.57;3.13;;;8.90;99.90;;;;;;5030174;28;20049;-68
2022/11/27 09:41:44;;;;;;;6.90;3.22;;;9.00;99.90;;;;;;5023708;28;20268;-67
2022/11/27 09:44:32;;;;;;;8.50;3.97;;;9.00;99.90;;;;;;5028827;28;20511;-68
2022/11/27 09:47:03;;;;;;;11.98;3.80;;;8.70;1.00;;;;;;5029443;28;20124;-67
2022/11/27 09:49:39;;;;;;;9.38;3.30;;;8.80;99.90;;;;;;5026568;28;20483;-68
2022/11/27 09:52:10;;;;;;;;;;;8.70;1.00;;;;;;5030111;28;20523;-67
2022/11/27 09:54:49;;;;;;;13.43;4.28;;;8.60;99.90;;;;;;5005200;28;19917;-67
2022/11/27 09:57:19;;;;;;;9.50;3.63;;;8.60;99.90;;;;;;5027759;28;20132;-67
2022/11/27 09:59:50;;;;;;;11.43;4.05;;;8.60;99.90;;;;;;5030972;28;20034;-67
2022/11/27 10:02:28;;;;;;;13.15;4.32;;;8.60;1.00;;;;;;5030862;28;20041;-67
2022/11/27 10:04:54;;;;;;;14.05;4.20;;;8.70;99.90;;;;;;5027738;28;20044;-67
2022/11/27 10:08:01;;;;;;;8.57;3.78;;;8.80;1.00;;;;;;5032566;28;20156;-67
2022/11/27 10:11:00;;;;;;;10.57;4.22;;;8.90;99.90;;;;;;4996798;28;20049;-68
2022/11/27 10:14:01;;;;;;;8.60;3.30;;;8.90;1.00;;;;;;5027229;28;20057;-67
2022/11/27 10:17:02;;;;;;;8.45;4.53;;;8.80;74.60;;;;;;5020410;28;20410;-68
2022/11/27 10:19:52;;;;;;;12.30;4.20;;;9.00;99.90;;;;;;5001654;28;20527;-67
2022/11/27 10:22:48;;;;;;;11.75;4.45;;;8.90;99.90;;;;;;5026594;28;20038;-67
2022/11/27 10:25:17;;;;;;;14.98;5.47;;;8.90;99.90;;;;;;5027434;28;20534;-67
2022/11/27 10:27:56;;;;;;;15.10;4.80;;;8.60;99.90;;;;;;5024738;28;20064;-67
2022/11/27 10:30:22;;;;;;;16.73;5.25;;;9.00;99.90;;;;;;5030156;28;20045;-67
2022/11/27 10:32:53;;;;;;;13.43;4.75;;;9.00;99.90;;;;;;5031495;28;20033;-67
2022/11/27 10:35:22;;;;;;;11.70;4.53;;;8.60;99.90;;;;;;5029582;28;20541;-67
2022/11/27 10:37:55;;;;;;;10.15;5.05;;;8.90;99.90;;;;;;5028789;28;20044;-67
2022/11/27 10:40:29;;;;;;;13.32;4.88;;;8.90;99.90;;;;;;5027235;28;20033;-67
2022/11/27 10:43:22;;;;;;;10.80;4.28;;;9.00;99.90;;;;;;5019090;28;20041;-67
2022/11/27 10:46:13;;;;;;;9.57;4.03;;;8.60;99.90;;;;;;5030664;28;20399;-68
2022/11/27 10:48:39;;;;;;;12.23;4.57;;;8.50;99.90;;;;;;5029635;28;20052;-67
2022/11/27 10:51:21;;;;;;;13.07;5.15;;;9.00;99.90;;;;;;5027322;28;20037;-68
2022/11/27 10:53:51;;;;;;;10.00;3.85;;;9.00;99.90;;;;;;5015143;28;20046;-67
2022/11/27 10:56:50;;;;;;;11.95;4.90;;;9.00;99.90;;;;;;5028423;28;20045;-68
2022/11/27 10:59:28;;;;;;;13.48;4.68;;;9.10;99.90;;;;;;5042837;28;20045;-68
2022/11/27 11:01:56;;;;;;;8.30;4.82;;;9.00;99.90;;;;;;5027445;28;20064;-67
2022/11/27 11:04:26;;;;;;;12.05;4.63;;;9.10;99.90;;;;;;5029645;28;20038;-67
2022/11/27 11:06:51;;;;;;;14.07;5.47;;;9.10;99.90;;;;;;5027019;28;20042;-68
2022/11/27 11:09:33;;;;;;;13.68;5.38;;;9.20;99.90;;;;;;5020132;28;20076;-67
2022/11/27 11:12:17;;;;;;;19.10;6.57;;;8.70;99.90;;;;;;5023690;28;20033;-66
2022/11/27 11:14:50;;;;;;;9.18;4.78;;;9.10;99.90;;;;;;5073750;27;20409;-66
2022/11/27 11:17:17;;;;;;;10.82;5.10;;;9.10;99.90;;;;;;5064293;28;20453;-66
2022/11/27 11:19:44;;;;;;;14.07;6.00;;;8.80;99.90;;;;;;5047748;28;20045;-68
2022/11/27 11:22:13;;;;;;;10.90;4.82;;;8.80;99.90;;;;;;5071504;28;20041;-67
2022/11/27 11:24:43;;;;;;;14.25;6.10;;;9.10;99.90;;;;;;5062428;28;20107;-68
2022/11/27 11:27:15;;;;;;;10.75;5.53;;;8.90;99.90;;;;;;5064189;28;20494;-67
2022/11/27 11:29:53;;;;;;;9.40;4.47;;;9.10;99.90;;;;;;5064031;28;20044;-68
2022/11/27 11:32:23;;;;;;;11.18;5.18;;;9.10;99.90;;;;;;5056948;28;20052;-68
2022/11/27 11:35:22;;;;;;;12.38;5.90;;;11.80;99.90;;;;;;5062669;28;20052;-66
2022/11/27 11:37:48;;;;;;;9.35;5.20;;;9.10;99.90;;;;;;5062738;28;20055;-66
2022/11/27 11:40:13;;;;;;;9.65;4.63;;;9.00;99.90;;;;;;5064825;28;20071;-66
2022/11/27 11:42:59;;;;;;;14.70;6.65;;;9.20;99.90;;;;;;5061931;28;20463;-67
2022/11/27 11:45:26;;;;;;;14.88;7.18;;;9.20;99.90;;;;;;5063224;28;20112;-66
2022/11/27 11:47:58;;;;;;;13.82;5.72;;;9.00;99.90;;;;;;5059371;28;20056;-68
2022/11/27 11:51:03;;;;;;;15.65;6.63;;;9.10;99.90;;;;;;5063718;28;20449;-67
2022/11/27 11:53:44;;;;;;;12.85;6.25;;;9.20;99.90;;;;;;5057700;28;20059;-67
2022/11/27 11:56:36;;;;;;;15.65;5.90;;;8.90;99.90;;;;;;5063534;28;20051;-67
2022/11/27 11:59:11;;;;;;;18.30;6.47;;;8.80;99.90;;;;;;5048255;28;20486;-67
2022/11/27 12:01:55;;;;;;;13.52;5.05;;;9.40;99.90;;;;;;5064719;28;20513;-66
2022/11/27 12:04:32;;;;;;;12.45;4.78;;;9.10;99.90;;;;;;5049402;28;20498;-67
2022/11/27 12:07:03;;;;;;;11.77;5.43;;;9.40;99.90;;;;;;5078024;28;20053;-68
2022/11/27 12:09:52;;;;;;;11.40;5.70;;;9.30;99.90;;;;;;5051617;28;20498;-67
2022/11/27 12:12:21;;;;;;;9.30;5.45;;;9.10;99.90;;;;;;5053083;28;20051;-66
2022/11/27 12:14:58;;;;;;;17.00;7.30;;;9.40;99.90;;;;;;5040132;28;20052;-68
2022/11/27 12:17:51;;;;;;;11.45;6.40;;;8.80;99.90;;;;;;5061642;28;20037;-67
2022/11/27 12:20:22;;;;;;;19.05;9.15;;;8.80;99.90;;;;;;5061692;28;20499;-67
2022/11/27 12:23:07;;;;;;;14.25;7.60;;;9.20;99.90;;;;;;5057609;28;20121;-66
2022/11/27 12:25:35;;;;;;;17.45;9.57;;;9.10;99.90;;;;;;5070740;28;20497;-67
2022/11/27 12:28:25;;;;;;;23.05;10.68;;;8.90;99.90;;;;;;5052401;28;20494;-67
2022/11/27 12:31:27;;;;;;;11.25;6.60;;;9.40;99.90;;;;;;5032711;28;20494;-67
2022/11/27 12:34:02;;;;;;;14.65;7.30;;;9.10;99.90;;;;;;5038963;28;20099;-67
2022/11/27 12:36:42;;;;;;;17.48;7.43;;;9.50;99.90;;;;;;5039452;28;20129;-66
2022/11/27 12:39:24;;;;;;;18.52;7.25;;;9.10;99.90;;;;;;5044965;28;20041;-69
2022/11/27 12:42:00;;;;;;;13.40;7.63;;;8.70;99.90;;;;;;5064369;28;20044;-68
2022/11/27 12:44:49;;;;;;;23.65;9.48;;;9.30;99.90;;;;;;5047736;28;20048;-67
2022/11/27 12:47:39;;;;;;;21.38;8.43;;;9.00;99.90;;;;;;5034452;28;20733;-66
2022/11/27 12:50:15;;;;;;;21.40;9.90;;;9.20;99.90;;;;;;5042510;28;20091;-66
2022/11/27 12:52:44;;;;;;;13.43;7.55;;;9.30;99.90;;;;;;5041088;28;20037;-67
2022/11/27 12:55:16;;;;;;;15.30;7.60;;;9.30;99.90;;;;;;5039563;28;20060;-68
2022/11/27 12:57:57;;;;;;;11.80;7.03;;;8.90;99.90;;;;;;5041946;28;20037;-67
2022/11/27 13:00:26;;;;;;;12.20;7.65;;;9.50;99.90;;;;;;5038070;28;20041;-66
2022/11/27 13:03:14;;;;;;;15.73;7.38;;;9.60;99.90;;;;;;5048273;28;20414;-66
2022/11/27 13:05:48;;;;;;;17.75;10.80;;;8.90;99.90;;;;;;5040191;28;20065;-66
2022/11/27 13:08:29;;;;;;;22.35;10.70;;;9.40;99.90;;;;;;5047011;28;20040;-67
2022/11/27 13:11:02;;;;;;;17.92;7.57;;;9.30;99.90;;;;;;5046900;28;20131;-67